Terminal Aerodrome Forecast
Issued by NWS

Home | Current Version | Previous Version | Text Only | Print | Product List | Glossary On
Versions: 1 2 3 4 5 6 7 8 9 10 11 12 13 14 15 16 17 18
000
FTUS43 KBIS 191739
TAFMOT
TAF
KMOT 191739Z 1918/2018 10010KT 5SM BR OVC003
     FM192200 10008KT P6SM BKN060
     FM200600 17004KT P6SM OVC080
     FM200900 26006KT P6SM -RA OVC015
     FM201100 28007KT P6SM -RA OVC008
     FM201500 27010KT P6SM BKN020
     FM201700 27013G21KT P6SM SCT070=

USA.gov is the U.S. government's official web portal to all federal, state and local government web resources and services.